Terminal Aerodrome Forecast
Issued by NWS Jackson, MS

Current Version | Previous Version | Text Only | Print | Product List | Glossary On
Versions: 1 2 3 4 5 6 7 8 9 10 11 12 13
099
FTUS44 KJAN 251723
TAFHBG
TAF
KHBG 251723Z 2518/2618 19012KT 6SM -TSRA BKN040CB BKN250
     FM252000 19010KT P6SM VCTS BKN050CB OVC250
     FM260200 17006KT P6SM SCT250
     FM260700 18004KT 5SM BR BKN003 BKN250
     FM261100 19003KT 3/4SM BR BKN001 BKN250
     FM261300 20003KT 1SM BR BKN003 BKN250
     FM261400 20004KT 3SM BR FEW003 SCT250
     FM261500 21005KT P6SM FEW015 SCT250=

USA.gov is the U.S. government's official web portal to all federal, state and local government web resources and services.